createdAt,value
2022-09-02T00:00:00.400Z,18.90
2022-09-02T00:02:31.587Z,18.90
2022-09-02T00:05:02.364Z,18.90
2022-09-02T00:07:33.025Z,18.90
2022-09-02T00:10:03.624Z,18.80
2022-09-02T00:12:34.286Z,18.80
2022-09-02T00:15:05.853Z,18.70
2022-09-02T00:17:36.514Z,18.80
2022-09-02T00:20:08.664Z,18.80
2022-09-02T00:22:39.218Z,18.70
2022-09-02T00:25:11.296Z,18.70
2022-09-02T00:27:41.960Z,18.60
2022-09-02T00:30:15.393Z,18.80
2022-09-02T00:32:45.990Z,18.70
2022-09-02T00:35:16.615Z,18.80
2022-09-02T00:37:47.319Z,18.80
2022-09-02T00:40:18.486Z,18.60
2022-09-02T00:42:49.098Z,18.60
2022-09-02T00:45:20.089Z,18.50
2022-09-02T00:47:51.925Z,18.20
2022-09-02T00:50:25.667Z,18.10
2022-09-02T00:52:59.612Z,18.20
2022-09-02T00:55:33.713Z,18.20
2022-09-02T00:58:09.235Z,18.20
2022-09-02T01:00:44.600Z,18.10
2022-09-02T01:03:18.620Z,18.10
2022-09-02T01:05:51.791Z,18.00
2022-09-02T01:08:25.457Z,18.00
2022-09-02T01:10:57.622Z,17.90
2022-09-02T01:13:30.771Z,17.90
2022-09-02T01:16:04.706Z,17.90
2022-09-02T01:18:36.880Z,17.90
2022-09-02T01:21:08.488Z,18.10
2022-09-02T01:23:39.679Z,18.10
2022-09-02T01:26:11.000Z,18.00
2022-09-02T01:28:41.584Z,18.10
2022-09-02T01:31:12.246Z,17.90
2022-09-02T01:33:43.466Z,17.80
2022-09-02T01:36:15.315Z,18.00
2022-09-02T01:38:45.896Z,18.10
2022-09-02T01:41:16.632Z,18.10
2022-09-02T01:43:47.218Z,18.00
2022-09-02T01:46:17.810Z,17.90
2022-09-02T01:48:48.469Z,17.60
2022-09-02T01:51:21.280Z,17.60
2022-09-02T01:53:51.848Z,17.40
2022-09-02T01:56:22.533Z,17.40
2022-09-02T01:58:53.104Z,17.40
2022-09-02T02:01:24.284Z,17.40
2022-09-02T02:03:55.275Z,17.40
2022-09-02T02:06:26.993Z,17.40
2022-09-02T02:08:57.719Z,17.40
2022-09-02T02:11:28.431Z,17.30
2022-09-02T02:13:59.119Z,17.40
2022-09-02T02:16:29.977Z,17.30
2022-09-02T02:19:00.704Z,17.20
2022-09-02T02:21:31.552Z,17.30
2022-09-02T02:24:02.431Z,17.30
2022-09-02T02:26:33.793Z,17.30
2022-09-02T02:29:04.715Z,17.10
2022-09-02T02:31:35.705Z,17.10
2022-09-02T02:34:06.785Z,17.30
2022-09-02T02:36:37.399Z,17.50
2022-09-02T02:39:09.700Z,17.60
2022-09-02T02:41:44.725Z,17.70
2022-09-02T02:44:14.325Z,17.30
2022-09-02T02:46:45.345Z,17.20
2022-09-02T02:49:16.045Z,17.20
2022-09-02T02:51:47.102Z,17.20
2022-09-02T02:54:17.799Z,17.10
2022-09-02T02:56:48.432Z,17.10
2022-09-02T02:59:18.978Z,17.10
2022-09-02T03:01:49.668Z,17.20
2022-09-02T03:04:20.883Z,17.10
2022-09-02T03:06:51.439Z,17.00
2022-09-02T03:09:21.994Z,17.00
2022-09-02T03:11:52.725Z,16.90
2022-09-02T03:14:23.375Z,16.90
2022-09-02T03:16:54.255Z,16.90
2022-09-02T03:19:24.836Z,16.90
2022-09-02T03:21:55.462Z,16.90
2022-09-02T03:24:26.013Z,16.90
2022-09-02T03:26:56.634Z,17.00
2022-09-02T03:29:27.591Z,17.00
2022-09-02T03:31:58.439Z,17.10
2022-09-02T03:34:29.428Z,17.20
2022-09-02T03:37:00.675Z,17.40
2022-09-02T03:39:31.316Z,17.30
2022-09-02T03:42:01.888Z,17.00
2022-09-02T03:44:34.411Z,17.00
2022-09-02T03:47:05.263Z,16.80
2022-09-02T03:49:36.328Z,16.60
2022-09-02T03:52:07.187Z,16.50
2022-09-02T03:54:37.807Z,16.50
2022-09-02T03:57:08.643Z,16.40
2022-09-02T03:59:39.474Z,16.30
2022-09-02T04:02:10.834Z,16.30
2022-09-02T04:04:42.023Z,16.30
2022-09-02T04:07:12.679Z,16.30
2022-09-02T04:09:46.588Z,16.40
2022-09-02T04:12:15.620Z,16.40
2022-09-02T04:14:46.237Z,16.40
2022-09-02T04:17:18.587Z,16.40
2022-09-02T04:19:50.038Z,16.40
2022-09-02T04:22:20.777Z,16.40
2022-09-02T04:24:51.356Z,16.30
2022-09-02T04:27:22.148Z,16.10
2022-09-02T04:29:52.872Z,16.10
2022-09-02T04:32:23.495Z,16.10
2022-09-02T04:34:54.209Z,16.10
2022-09-02T04:37:24.906Z,16.00
2022-09-02T04:39:57.569Z,16.00
2022-09-02T04:42:29.257Z,16.00
2022-09-02T04:44:59.957Z,15.90
2022-09-02T04:47:31.139Z,15.80
2022-09-02T04:50:01.893Z,15.70
2022-09-02T04:52:32.649Z,15.70
2022-09-02T04:55:03.340Z,15.80
2022-09-02T04:57:34.343Z,15.80
2022-09-02T05:00:06.806Z,15.80
2022-09-02T05:02:37.606Z,15.70
2022-09-02T05:05:11.299Z,15.70
2022-09-02T05:07:42.152Z,15.70
2022-09-02T05:10:14.110Z,15.80
2022-09-02T05:12:45.062Z,15.80
2022-09-02T05:15:17.228Z,15.70
2022-09-02T05:17:48.110Z,15.70
2022-09-02T05:20:18.993Z,15.60
2022-09-02T05:22:50.849Z,15.70
2022-09-02T05:25:21.770Z,15.70
2022-09-02T05:27:52.443Z,15.70
2022-09-02T05:30:23.406Z,15.60
2022-09-02T05:32:54.019Z,15.60
2022-09-02T05:35:24.838Z,15.60
2022-09-02T05:38:00.652Z,15.70
2022-09-02T05:40:28.979Z,15.80
2022-09-02T05:42:59.971Z,15.90
2022-09-02T05:45:30.633Z,16.00
2022-09-02T05:48:03.031Z,16.00
2022-09-02T05:50:33.810Z,16.00
2022-09-02T05:53:04.613Z,16.20
2022-09-02T05:55:35.328Z,16.20
2022-09-02T05:58:05.984Z,16.30
2022-09-02T06:00:36.693Z,16.40
2022-09-02T06:03:07.571Z,16.50
2022-09-02T06:05:38.393Z,16.60
2022-09-02T06:08:09.075Z,16.60
2022-09-02T06:10:44.806Z,16.50
2022-09-02T06:13:16.032Z,16.60
2022-09-02T06:15:46.838Z,16.70
2022-09-02T06:18:19.245Z,16.80
2022-09-02T06:20:50.732Z,16.80
2022-09-02T06:23:21.869Z,17.00
2022-09-02T06:25:52.956Z,17.10
2022-09-02T06:28:23.567Z,17.30
2022-09-02T06:30:54.429Z,17.60
2022-09-02T06:33:25.308Z,17.90
2022-09-02T06:35:55.987Z,18.20
2022-09-02T06:38:27.131Z,18.40
2022-09-02T06:40:58.174Z,18.80
2022-09-02T06:43:28.907Z,19.00
2022-09-02T06:46:01.301Z,19.10
2022-09-02T06:48:32.286Z,19.20
2022-09-02T06:51:02.979Z,19.30
2022-09-02T06:53:33.591Z,19.40
2022-09-02T06:56:05.966Z,19.60
2022-09-02T06:58:36.557Z,19.60
2022-09-02T07:01:07.747Z,19.80
2022-09-02T07:03:56.104Z,20.00
2022-09-02T07:06:27.746Z,20.00
2022-09-02T07:08:58.329Z,20.20
2022-09-02T07:11:28.993Z,20.40
2022-09-02T07:14:01.954Z,20.60
2022-09-02T07:16:34.671Z,20.80
2022-09-02T07:19:12.481Z,20.90
2022-09-02T07:21:41.222Z,20.90
2022-09-02T07:24:12.843Z,20.90
2022-09-02T07:26:44.408Z,20.60
2022-09-02T07:29:16.027Z,20.60
2022-09-02T07:31:49.180Z,20.40
2022-09-02T07:34:21.068Z,20.30
2022-09-02T07:36:52.832Z,20.40
2022-09-02T07:39:23.553Z,20.60
2022-09-02T07:41:54.772Z,20.70
2022-09-02T07:44:26.085Z,20.70
2022-09-02T07:46:57.067Z,21.10
2022-09-02T07:49:28.038Z,21.40
2022-09-02T07:51:58.816Z,21.70
2022-09-02T07:54:31.208Z,21.80
2022-09-02T07:57:01.797Z,22.00
2022-09-02T07:59:32.544Z,22.00
2022-09-02T08:02:03.768Z,22.10
2022-09-02T08:04:34.531Z,22.10
2022-09-02T08:07:05.287Z,22.00
2022-09-02T08:09:36.102Z,21.90
2022-09-02T08:12:08.755Z,21.90
2022-09-02T08:14:39.426Z,22.20
2022-09-02T08:17:11.169Z,22.20
2022-09-02T08:19:41.883Z,22.00
2022-09-02T08:22:12.751Z,22.30
2022-09-02T08:24:43.421Z,22.40
2022-09-02T08:27:14.159Z,22.20
2022-09-02T08:29:45.018Z,22.40
2022-09-02T08:32:16.146Z,22.70
2022-09-02T08:34:47.044Z,22.90
2022-09-02T08:37:19.385Z,22.40
2022-09-02T08:39:51.310Z,22.60
2022-09-02T08:42:25.459Z,22.60
2022-09-02T08:44:58.979Z,22.80
2022-09-02T08:47:33.260Z,22.70
2022-09-02T08:50:07.422Z,22.80
2022-09-02T08:52:41.018Z,22.90
2022-09-02T08:55:15.644Z,23.20
2022-09-02T08:57:49.125Z,23.60
2022-09-02T09:00:20.541Z,23.60
2022-09-02T09:02:58.271Z,23.70
2022-09-02T09:05:37.686Z,23.80
2022-09-02T09:08:15.934Z,23.70
2022-09-02T09:10:56.228Z,24.00
2022-09-02T09:13:56.312Z,24.30
2022-09-02T09:16:34.058Z,24.30
2022-09-02T09:19:09.174Z,24.50
2022-09-02T09:21:41.521Z,24.30
2022-09-02T09:26:59.626Z,24.50
2022-09-02T09:29:33.754Z,24.50
2022-09-02T09:32:07.092Z,24.60
2022-09-02T09:37:42.705Z,25.00
2022-09-02T09:40:32.353Z,25.10
2022-09-02T09:43:15.983Z,25.20
2022-09-02T09:45:48.128Z,25.30
2022-09-02T09:48:23.913Z,25.10
2022-09-02T09:51:16.010Z,25.20
2022-09-02T09:53:47.078Z,25.10
2022-09-02T09:56:32.482Z,25.30
2022-09-02T09:59:06.448Z,25.40
2022-09-02T10:01:38.880Z,25.70
2022-09-02T10:06:48.155Z,26.30
2022-09-02T10:09:35.389Z,26.00
2022-09-02T10:12:08.644Z,25.80
2022-09-02T10:14:41.501Z,25.80
2022-09-02T10:17:23.445Z,25.50
2022-09-02T10:19:58.270Z,25.50
2022-09-02T10:23:00.025Z,25.30
2022-09-02T10:25:33.376Z,25.30
2022-09-02T10:28:08.269Z,25.20
2022-09-02T10:30:42.761Z,25.40
2022-09-02T10:36:20.856Z,25.40
2022-09-02T10:38:50.993Z,25.30
2022-09-02T10:41:33.547Z,25.20
2022-09-02T10:44:15.473Z,25.20
2022-09-02T10:46:50.397Z,25.10
2022-09-02T10:49:25.881Z,25.10
2022-09-02T10:52:01.509Z,25.20
2022-09-02T10:54:39.421Z,25.50
2022-09-02T10:57:13.375Z,25.70
2022-09-02T10:59:47.062Z,25.60
2022-09-02T11:02:21.669Z,25.40
2022-09-02T11:04:56.797Z,25.30
2022-09-02T11:07:30.870Z,25.80
2022-09-02T11:10:06.783Z,25.80
2022-09-02T11:12:40.540Z,25.70
2022-09-02T11:17:56.799Z,26.00
2022-09-02T11:20:34.590Z,26.20
2022-09-02T11:23:08.478Z,26.50
2022-09-02T11:25:44.367Z,26.30
2022-09-02T11:28:25.535Z,26.10
2022-09-02T11:31:00.330Z,26.20
2022-09-02T11:33:35.172Z,26.10
2022-09-02T11:36:07.012Z,25.80
2022-09-02T11:38:58.531Z,25.70
2022-09-02T11:41:37.230Z,25.80
2022-09-02T11:47:11.724Z,26.50
2022-09-02T11:50:06.287Z,27.20
2022-09-02T11:52:49.712Z,27.50
2022-09-02T11:55:23.833Z,28.00
2022-09-02T11:57:57.549Z,27.90
2022-09-02T12:00:34.966Z,27.90
2022-09-02T12:03:40.952Z,28.00
2022-09-02T12:06:10.978Z,27.90
2022-09-02T12:09:12.971Z,27.80
2022-09-02T12:11:53.373Z,28.00
2022-09-02T12:15:06.827Z,27.60
2022-09-02T12:17:44.993Z,27.50
2022-09-02T12:20:35.991Z,27.10
2022-09-02T12:23:08.318Z,26.90
2022-09-02T12:25:42.434Z,26.90
2022-09-02T12:31:33.376Z,27.20
2022-09-02T12:34:06.536Z,27.40
2022-09-02T12:36:54.143Z,27.70
2022-09-02T12:39:56.008Z,28.10
2022-09-02T12:42:33.769Z,28.60
2022-09-02T12:45:13.715Z,29.00
2022-09-02T12:47:53.785Z,29.20
2022-09-02T12:50:29.929Z,29.70
2022-09-02T12:53:35.949Z,29.80
2022-09-02T12:56:10.720Z,30.00
2022-09-02T12:58:48.216Z,30.00
2022-09-02T13:01:25.254Z,29.90
2022-09-02T13:04:06.766Z,30.00
2022-09-02T13:06:56.309Z,29.60
2022-09-02T13:13:13.698Z,29.10
2022-09-02T13:19:24.970Z,29.80
2022-09-02T13:22:08.870Z,30.70
2022-09-02T13:25:15.674Z,31.20
2022-09-02T13:28:23.964Z,31.10
2022-09-02T13:31:01.912Z,30.20
2022-09-02T13:33:33.265Z,30.40
2022-09-02T13:36:04.233Z,30.90
2022-09-02T13:38:35.171Z,30.50
2022-09-02T13:41:06.637Z,30.10
2022-09-02T13:43:38.024Z,30.10
2022-09-02T13:46:10.750Z,31.00
2022-09-02T13:48:43.582Z,31.30
2022-09-02T13:51:17.451Z,31.20
2022-09-02T13:54:21.466Z,31.10
2022-09-02T13:56:30.927Z,31.10
2022-09-02T13:59:02.196Z,30.70
2022-09-02T14:01:36.000Z,30.80
2022-09-02T14:04:10.310Z,30.50
2022-09-02T14:06:44.863Z,30.40
2022-09-02T14:09:22.087Z,30.00
2022-09-02T14:11:54.060Z,29.10
2022-09-02T14:14:26.731Z,29.80
2022-09-02T14:17:17.551Z,29.70
2022-09-02T14:19:49.126Z,29.90
2022-09-02T14:22:26.168Z,28.80
2022-09-02T14:24:57.722Z,29.00
2022-09-02T14:27:28.759Z,29.20
2022-09-02T14:30:00.991Z,29.30
2022-09-02T14:32:32.388Z,29.60
2022-09-02T14:35:16.406Z,30.00
2022-09-02T14:37:59.405Z,30.60
2022-09-02T14:40:39.490Z,30.80
2022-09-02T14:43:16.536Z,30.80
2022-09-02T14:45:50.346Z,30.80
2022-09-02T14:48:24.039Z,31.10
2022-09-02T14:51:03.005Z,30.70
2022-09-02T14:53:34.808Z,30.20
2022-09-02T14:56:07.484Z,30.00
2022-09-02T14:58:38.164Z,30.80
2022-09-02T15:01:09.821Z,32.00
2022-09-02T15:03:41.105Z,32.00
2022-09-02T15:06:15.108Z,30.90
2022-09-02T15:08:44.676Z,31.10
2022-09-02T15:11:17.200Z,30.80
2022-09-02T15:13:47.761Z,30.60
2022-09-02T15:16:18.347Z,30.10
2022-09-02T15:18:49.068Z,30.80
2022-09-02T15:21:21.281Z,31.10
2022-09-02T15:23:51.914Z,31.20
2022-09-02T15:26:22.896Z,31.50
2022-09-02T15:28:53.480Z,31.70
2022-09-02T15:31:24.178Z,31.30
2022-09-02T15:33:55.098Z,32.30
2022-09-02T15:36:26.691Z,32.70
2022-09-02T15:38:57.490Z,31.70
2022-09-02T15:41:29.907Z,31.50
2022-09-02T15:44:00.740Z,31.50
2022-09-02T15:46:33.100Z,31.00
2022-09-02T15:49:05.791Z,30.10
2022-09-02T15:51:39.172Z,29.60
2022-09-02T15:54:11.872Z,29.10
2022-09-02T15:56:46.552Z,28.20
2022-09-02T15:59:22.565Z,27.90
2022-09-02T16:01:56.120Z,27.80
2022-09-02T16:04:28.123Z,27.60
2022-09-02T16:06:58.858Z,27.40
2022-09-02T16:09:30.164Z,27.10
2022-09-02T16:12:00.786Z,26.90
2022-09-02T16:14:31.478Z,26.80
2022-09-02T16:17:02.313Z,26.60
2022-09-02T16:19:33.023Z,26.60
2022-09-02T16:22:03.676Z,26.40
2022-09-02T16:24:34.374Z,26.30
2022-09-02T16:27:05.034Z,26.20
2022-09-02T16:29:37.474Z,26.20
2022-09-02T16:32:24.376Z,26.30
2022-09-02T16:34:41.036Z,26.30
2022-09-02T16:37:11.719Z,26.20
2022-09-02T16:39:42.573Z,26.00
2022-09-02T16:42:13.568Z,25.90
2022-09-02T16:44:45.039Z,25.80
2022-09-02T16:47:15.643Z,25.60
2022-09-02T16:49:47.016Z,25.70
2022-09-02T16:52:17.880Z,25.70
2022-09-02T16:54:49.063Z,25.70
2022-09-02T16:57:19.695Z,25.60
2022-09-02T16:59:51.826Z,25.50
2022-09-02T17:02:23.645Z,25.30
2022-09-02T17:04:54.346Z,25.20
2022-09-02T17:07:24.997Z,25.00
2022-09-02T17:09:55.660Z,25.00
2022-09-02T17:12:26.508Z,24.90
2022-09-02T17:14:57.174Z,24.80
2022-09-02T17:17:27.808Z,24.90
2022-09-02T17:19:58.481Z,24.80
2022-09-02T17:22:29.186Z,24.80
2022-09-02T17:24:59.934Z,24.70
2022-09-02T17:27:30.588Z,24.60
2022-09-02T17:30:01.331Z,24.50
2022-09-02T17:32:32.190Z,24.40
2022-09-02T17:35:03.607Z,24.20
2022-09-02T17:37:37.529Z,24.10
2022-09-02T17:40:14.551Z,24.00
2022-09-02T17:42:45.194Z,23.90
2022-09-02T17:45:16.086Z,23.80
2022-09-02T17:47:46.911Z,23.70
2022-09-02T17:50:18.128Z,23.60
2022-09-02T17:52:49.014Z,23.60
2022-09-02T17:55:20.204Z,23.60
2022-09-02T17:58:05.435Z,23.50
2022-09-02T18:00:39.110Z,23.50
2022-09-02T18:03:31.396Z,23.40
2022-09-02T18:06:08.852Z,23.40
2022-09-02T18:08:43.432Z,23.20
2022-09-02T18:11:15.836Z,23.20
2022-09-02T18:14:00.385Z,23.20
2022-09-02T18:16:37.054Z,23.30
2022-09-02T18:19:19.437Z,23.20
2022-09-02T18:22:01.360Z,23.20
2022-09-02T18:24:41.380Z,22.90
2022-09-02T18:27:18.679Z,22.60
2022-09-02T18:29:58.813Z,22.60
2022-09-02T18:32:37.332Z,22.50
2022-09-02T18:35:14.477Z,22.50
2022-09-02T18:37:48.933Z,22.40
2022-09-02T18:40:27.538Z,22.40
2022-09-02T18:43:05.253Z,22.30
2022-09-02T18:45:39.204Z,22.20
2022-09-02T18:48:12.499Z,22.10
2022-09-02T18:50:51.960Z,22.00
2022-09-02T18:53:21.781Z,21.90
2022-09-02T18:55:54.479Z,21.80
2022-09-02T19:01:13.009Z,21.80
2022-09-02T19:03:43.756Z,21.80
2022-09-02T19:06:19.447Z,21.70
2022-09-02T19:08:52.492Z,21.80
2022-09-02T19:11:24.405Z,21.70
2022-09-02T19:13:56.750Z,21.80
2022-09-02T19:16:29.233Z,21.80
2022-09-02T19:19:00.377Z,21.70
2022-09-02T19:21:34.268Z,21.80
2022-09-02T19:24:10.796Z,21.80
2022-09-02T19:26:43.927Z,21.90
2022-09-02T19:29:16.798Z,22.00
2022-09-02T19:31:49.294Z,22.00
2022-09-02T19:34:20.469Z,22.00
2022-09-02T19:36:52.779Z,22.10
2022-09-02T19:39:23.547Z,22.10
2022-09-02T19:41:56.015Z,22.20
2022-09-02T19:44:26.609Z,22.30
2022-09-02T19:47:44.502Z,22.20
2022-09-02T19:49:29.757Z,22.10
2022-09-02T19:52:00.609Z,22.00
2022-09-02T19:54:31.808Z,21.90
2022-09-02T19:57:02.979Z,21.70
2022-09-02T19:59:33.762Z,21.50
2022-09-02T20:02:04.714Z,21.60
2022-09-02T20:04:35.349Z,21.50
2022-09-02T20:07:11.499Z,21.30
2022-09-02T20:09:42.441Z,21.10
2022-09-02T20:12:14.418Z,20.90
2022-09-02T20:14:45.753Z,20.80
2022-09-02T20:17:22.042Z,20.50
2022-09-02T20:19:54.538Z,20.40
2022-09-02T20:22:25.636Z,20.30
2022-09-02T20:24:57.503Z,20.20
2022-09-02T20:27:34.445Z,20.10
2022-09-02T20:30:12.766Z,20.00
2022-09-02T20:32:48.046Z,19.90
2022-09-02T20:35:40.133Z,19.80
2022-09-02T20:38:20.887Z,19.80
2022-09-02T20:40:54.838Z,19.80
2022-09-02T20:43:48.350Z,19.80
2022-09-02T20:46:31.265Z,19.90
2022-09-02T20:49:11.750Z,20.00
2022-09-02T20:51:47.612Z,19.90
2022-09-02T20:54:27.737Z,19.80
2022-09-02T20:57:23.916Z,19.80
2022-09-02T21:00:02.437Z,19.70
2022-09-02T21:02:36.075Z,19.70
2022-09-02T21:05:09.983Z,19.70
2022-09-02T21:07:45.193Z,19.70
2022-09-02T21:10:21.148Z,19.80
2022-09-02T21:12:54.146Z,19.80
2022-09-02T21:15:35.406Z,19.80
2022-09-02T21:18:11.879Z,19.70
2022-09-02T21:20:49.732Z,19.80
2022-09-02T21:23:26.310Z,19.70
2022-09-02T21:25:59.677Z,19.60
2022-09-02T21:28:36.114Z,19.50
2022-09-02T21:31:10.101Z,19.40
2022-09-02T21:33:42.661Z,19.30
2022-09-02T21:36:15.116Z,19.30
2022-09-02T21:38:47.726Z,19.20
2022-09-02T21:41:30.770Z,19.20
2022-09-02T21:44:09.085Z,19.20
2022-09-02T21:46:45.476Z,19.20
2022-09-02T21:49:20.257Z,19.30
2022-09-02T21:51:54.911Z,19.20
2022-09-02T21:54:37.474Z,19.20
2022-09-02T21:57:20.033Z,19.10
2022-09-02T21:59:58.852Z,19.00
2022-09-02T22:02:35.752Z,19.00
2022-09-02T22:05:14.223Z,18.90
2022-09-02T22:07:49.605Z,18.90
2022-09-02T22:10:26.521Z,18.90
2022-09-02T22:13:01.837Z,18.90
2022-09-02T22:15:37.763Z,18.90
2022-09-02T22:18:14.309Z,19.00
2022-09-02T22:20:46.947Z,18.90
2022-09-02T22:23:23.724Z,18.80
2022-09-02T22:25:55.834Z,18.60
2022-09-02T22:28:30.080Z,18.60
2022-09-02T22:31:03.639Z,18.60
2022-09-02T22:33:37.271Z,18.60
2022-09-02T22:36:12.205Z,18.60
2022-09-02T22:38:46.574Z,18.60
2022-09-02T22:41:23.294Z,18.60
2022-09-02T22:43:57.522Z,18.60
2022-09-02T22:46:49.229Z,18.60
2022-09-02T22:49:40.475Z,18.60
2022-09-02T22:52:32.746Z,18.60
2022-09-02T22:55:04.057Z,18.60
2022-09-02T22:57:39.290Z,18.70
2022-09-02T23:00:13.237Z,18.60
2022-09-02T23:02:48.368Z,18.60
2022-09-02T23:05:47.069Z,18.60
2022-09-02T23:08:20.548Z,18.60
2022-09-02T23:10:57.288Z,18.60
2022-09-02T23:13:36.444Z,18.60
2022-09-02T23:16:12.220Z,18.70
2022-09-02T23:18:49.405Z,18.70
2022-09-02T23:21:25.658Z,18.70
2022-09-02T23:24:02.215Z,18.70
2022-09-02T23:26:40.160Z,18.70
2022-09-02T23:29:19.013Z,18.70
2022-09-02T23:32:00.594Z,18.70
2022-09-02T23:34:40.295Z,18.80
2022-09-02T23:37:14.266Z,18.80
2022-09-02T23:39:54.829Z,18.80
2022-09-02T23:42:26.328Z,18.70
2022-09-02T23:45:00.749Z,18.70
2022-09-02T23:47:38.387Z,18.70
2022-09-02T23:50:16.549Z,18.60
2022-09-02T23:52:53.380Z,18.60
2022-09-02T23:55:32.278Z,18.60
2022-09-02T23:58:11.068Z,18.40
